Weather observations for the past three days for
Olive Branch, Olive Branch Airport
| Date | Time (cdt) | Wind (kph) | Vis. (km) | Weather | Sky Cond. | Temperature (ºC) | Relative Humidity | Wind Chill (°C) | Heat Index (°C) | Pressure | Precipitation (cm) | ||||||
|---|---|---|---|---|---|---|---|---|---|---|---|---|---|---|---|---|---|
| Air | Dwpt | 6 hour | altimeter (cm) | sea level (mb) | 1 hr | 3 hr | 6 hr | ||||||||||
| Max. | Min. | ||||||||||||||||
| 03 | 19:50 | S 6 | 16.09 | Fair | CLR | 30 | 21 | 59% | 33 | 76.02 | 0.0 | ||||||
| 03 | 18:50 | S 9 | 16.09 | A Few Clouds | FEW070 | 31 | 21 | 55% | 34 | 76.02 | 0.0 | ||||||
| 03 | 17:50 | S 15 | 16.09 | A Few Clouds | FEW070 | 34 | 21 | 47% | 37 | 76 | 0.0 | ||||||
| 03 | 16:50 | S 9 | 16.09 | Showers in Vicinity | SCT065 | 34 | 21 | 47% | 37 | 75.97 | 0.0 | ||||||
| 03 | 15:50 | E 7 | 16.09 | Showers in Vicinity | SCT065 | 38 | 20 | 35% | 41 | 76.02 | 0.0 | ||||||
| 03 | 14:50 | S 9 | 16.09 | Partly Cloudy | SCT090 | 37 | 21 | 39% | 41 | 76.07 | 0.0 | ||||||
| 03 | 13:50 | Calm | 16.09 | Mostly Cloudy | SCT090 BKN120 | 35 | 21 | 44% | 38 | 76.15 | 0.0 | ||||||
| 03 | 12:50 | SW 6 | 16.09 | Partly Cloudy | SCT055 SCT070 | 36 | 22 | 44% | 41 | 76.17 | 0.0 | ||||||
| 03 | 11:50 | Vrbl 6 | 16.09 | Partly Cloudy | SCT055 | 35 | 21 | 44% | 38 | 76.25 | 0.0 | ||||||
| 03 | 10:50 | Vrbl 6 | 16.09 | Fair | CLR | 34 | 22 | 50% | 38 | 76.28 | 0.0 | ||||||
| 03 | 09:50 | Vrbl 6 | 16.09 | Fair | CLR | 32 | 21 | 52% | 35 | 76.28 | 0.0 | ||||||
| 03 | 08:45 | S 6 | 16.09 | Fair | CLR | 30 | 22 | 62% | 33 | 76.28 | 0.0 | ||||||
| 03 | 07:50 | Calm | 16.09 | Fair | CLR | 27 | 21 | 70% | 29 | 76.28 | 0.0 | ||||||
| 03 | 06:50 | Calm | 16.09 | Fair | CLR | 25 | 20 | 74% | 26 | 76.23 | 0.0 | ||||||
| 03 | 06:35 | Calm | 16.09 | NULL | NULL | 25 | 20 | 74% | 26 | 76.23 | 0.0 | ||||||
| 03 | 06:15 | Calm | 16.09 | NULL | NULL | 25 | 20 | 74% | 26 | 76.2 | 0.0 | ||||||
| 03 | 05:55 | Calm | 16.09 | NULL | NULL | 25 | 20 | 74% | 26 | 76.2 | 0.0 | ||||||
| 03 | 05:35 | Calm | 16.09 | NULL | NULL | 25 | 20 | 74% | 26 | 76.2 | 0.0 | ||||||
| 03 | 05:15 | Calm | 16.09 | NULL | NULL | 25 | 20 | 74% | 26 | 76.17 | 0.0 | ||||||
| 03 | 04:55 | Calm | 16.09 | NULL | NULL | 25 | 20 | 74% | 26 | 76.17 | 0.0 | ||||||
| 03 | 04:35 | S 7 | 16.09 | NULL | NULL | 25 | 20 | 74% | 26 | 76.17 | 0.0 | ||||||
| 03 | 04:15 | S 9 | 16.09 | Fair | CLR | 25 | 20 | 74% | 26 | 76.17 | 0.0 | ||||||
| 03 | 03:55 | Calm | 16.09 | NULL | NULL | 25 | 20 | 74% | 26 | 76.17 | 0.0 | ||||||
| 03 | 03:35 | S 6 | 16.09 | Fair | CLR | 25 | 20 | 74% | 26 | 76.17 | 0.0 | ||||||
| 03 | 03:15 | S 7 | 16.09 | NULL | NULL | 25 | 20 | 74% | 26 | 76.17 | 0.0 | ||||||
| 03 | 02:55 | S 6 | 16.09 | NULL | NULL | 26 | 20 | 70% | 27 | 76.17 | 0.0 | ||||||
| 03 | 02:35 | S 9 | 16.09 | NULL | NULL | 26 | 20 | 70% | 27 | 76.17 | 0.0 | ||||||
| 03 | 02:15 | Calm | 16.09 | NULL | NULL | 27 | 20 | 66% | 29 | 76.17 | 0.0 | ||||||
| 03 | 01:55 | S 7 | 16.09 | NULL | NULL | 26 | 19 | 65% | 27 | 76.17 | 0.0 | ||||||
| 03 | 01:35 | S 7 | 16.09 | NULL | NULL | 27 | 19 | 62% | 28 | 76.17 | 0.0 | ||||||
| 03 | 01:15 | S 7 | 16.09 | Fair | CLR | 26 | 20 | 70% | 27 | 76.17 | 0.0 | ||||||
| 03 | 00:55 | S 7 | 16.09 | NULL | NULL | 26 | 20 | 70% | 27 | 76.2 | 0.0 | ||||||
| 03 | 00:35 | S 9 | 16.09 | NULL | NULL | 27 | 20 | 66% | 29 | 76.2 | 0.0 | ||||||
| 03 | 00:15 | S 7 | 16.09 | NULL | NULL | 26 | 20 | 70% | 27 | 76.17 | 0.0 | ||||||
| 02 | 23:55 | Calm | 16.09 | NULL | NULL | 27 | 20 | 66% | 29 | 76.17 | 0.0 | ||||||
| 02 | 23:35 | E 7 | 16.09 | NULL | NULL | 27 | 20 | 66% | 29 | 76.17 | 0.0 | ||||||
| 02 | 23:15 | SE 7 | 16.09 | Fair | CLR | 28 | 21 | 66% | 30 | 76.17 | 0.0 | ||||||
| 02 | 22:55 | Calm | 16.09 | NULL | NULL | 28 | 21 | 66% | 30 | 76.17 | 0.0 | ||||||
| 02 | 22:35 | Calm | 16.09 | NULL | NULL | 28 | 20 | 62% | 30 | 76.17 | 0.0 | ||||||
| 02 | 22:15 | Calm | 16.09 | NULL | NULL | 29 | 20 | 58% | 31 | 76.17 | 0.0 | ||||||
| 02 | 21:55 | Calm | 16.09 | NULL | NULL | 29 | 20 | 58% | 31 | 76.17 | 0.0 | ||||||
| 02 | 21:35 | Calm | 16.09 | NULL | NULL | 30 | 20 | 55% | 32 | 76.17 | 0.0 | ||||||
| 02 | 21:15 | Calm | 16.09 | NULL | NULL | 30 | 20 | 55% | 32 | 76.17 | 0.0 | ||||||
| 02 | 19:50 | SE 7 | 16.09 | Fair | CLR | 32 | 20 | 49% | 34 | 76.1 | 0.0 | ||||||
| 02 | 18:50 | SE 6 | 16.09 | A Few Clouds | FEW095 | 33 | 19 | 44% | 35 | 76.1 | 0.0 | ||||||
| 02 | 17:50 | S 7 | 16.09 | A Few Clouds | FEW095 | 33 | 19 | 44% | 35 | 76.1 | 0.0 | ||||||
| 02 | 16:50 | S 6 | 16.09 | Partly Cloudy | SCT070 SCT120 | 36 | 21 | 42% | 40 | 76.12 | 0.0 | ||||||
| 02 | 15:50 | Calm | 16.09 | Partly Cloudy | SCT065 | 37 | 20 | 37% | 40 | 76.15 | 0.0 | ||||||
| 02 | 14:50 | W 6 | 16.09 | Mostly Cloudy | BKN065 | 36 | 20 | 39% | 39 | 76.2 | 0.0 | ||||||
| 02 | 13:50 | S 6 | 16.09 | Mostly Cloudy | BKN065 | 35 | 20 | 41% | 38 | 76.25 | 0.0 | ||||||
| 02 | 12:45 | S 9 | 16.09 | Mostly Cloudy | BKN055 | 35 | 20 | 41% | 38 | 76.33 | 0.0 | ||||||
| 02 | 11:50 | E 7 | 16.09 | Partly Cloudy | SCT055 | 35 | 21 | 44% | 38 | 76.38 | 0.0 | ||||||
| 02 | 10:50 | Calm | 16.09 | Fair | CLR | 33 | 22 | 52% | 37 | 76.4 | 0.0 | ||||||
| 02 | 09:50 | SE 6 | 16.09 | Fair | CLR | 33 | 22 | 52% | 37 | 76.43 | 0.0 | ||||||
| 02 | 08:50 | SW 6 | 16.09 | Fair | CLR | 31 | 22 | 59% | 35 | 76.43 | 0.0 | ||||||
| 02 | 07:50 | Calm | 16.09 | Fair | CLR | 27 | 22 | 74% | 29 | 76.4 | 0.0 | ||||||
| 02 | 06:50 | S 7 | 16.09 | Fair | CLR | 25 | 20 | 74% | 26 | 76.35 | 0.0 | ||||||
| 02 | 06:35 | S 7 | 16.09 | NULL | NULL | 24 | 20 | 78% | 24 | 76.35 | 0.0 | ||||||
| 02 | 06:15 | S 7 | 16.09 | NULL | NULL | 24 | 20 | 78% | 24 | 76.33 | 0.0 | ||||||
| 02 | 05:55 | S 7 | 16.09 | NULL | NULL | 24 | 20 | 78% | 24 | 76.33 | 0.0 | ||||||
| 02 | 05:35 | S 9 | 16.09 | NULL | NULL | 24 | 21 | 83% | 24 | 76.3 | 0.0 | ||||||
| 02 | 05:15 | S 9 | 16.09 | NULL | NULL | 24 | 20 | 78% | 24 | 76.3 | 0.0 | ||||||
| 02 | 04:55 | S 9 | 16.09 | NULL | NULL | 24 | 20 | 78% | 24 | 76.3 | 0.0 | ||||||
| 02 | 04:35 | S 7 | 16.09 | NULL | NULL | 25 | 20 | 74% | 26 | 76.3 | 0.0 | ||||||
| 02 | 04:15 | Calm | 16.09 | NULL | NULL | 25 | 20 | 74% | 26 | 76.28 | 0.0 | ||||||
| 02 | 03:55 | Calm | 16.09 | NULL | NULL | 25 | 20 | 74% | 26 | 76.28 | 0.0 | ||||||
| 02 | 03:35 | Calm | 16.09 | Fair | CLR | 25 | 20 | 74% | 26 | 76.28 | 0.0 | ||||||
| 02 | 03:15 | Calm | 16.09 | NULL | NULL | 26 | 20 | 70% | 27 | 76.28 | 0.0 | ||||||
| 02 | 02:55 | Calm | 16.09 | NULL | NULL | 25 | 20 | 74% | 26 | 76.28 | 0.0 | ||||||
| 02 | 02:35 | Calm | 16.09 | NULL | NULL | 26 | 20 | 70% | 27 | 76.28 | 0.0 | ||||||
| 02 | 02:15 | Calm | 16.09 | NULL | NULL | 26 | 20 | 70% | 27 | 76.28 | 0.0 | ||||||
| 02 | 01:55 | Calm | 16.09 | NULL | NULL | 26 | 20 | 70% | 27 | 76.28 | 0.0 | ||||||
| 02 | 01:35 | SE 6 | 16.09 | Fair | CLR | 27 | 20 | 66% | 29 | 76.28 | 0.0 | ||||||
| 02 | 01:15 | S 7 | 16.09 | NULL | NULL | 26 | 20 | 70% | 27 | 76.28 | 0.0 | ||||||
| 02 | 00:55 | S 7 | 16.09 | NULL | NULL | 27 | 20 | 66% | 29 | 76.28 | 0.0 | ||||||
| 02 | 00:35 | S 7 | 16.09 | NULL | NULL | 28 | 20 | 62% | 30 | 76.28 | 0.0 | ||||||
| 02 | 00:15 | S 7 | 16.09 | NULL | NULL | 28 | 20 | 62% | 30 | 76.28 | 0.0 | ||||||
| 01 | 23:55 | SE 7 | 16.09 | NULL | NULL | 28 | 20 | 62% | 30 | 76.25 | 0.0 | ||||||
| 01 | 23:35 | SE 9 | 16.09 | Fair | CLR | 28 | 20 | 62% | 30 | 76.25 | 0.0 | ||||||
| 01 | 23:15 | SE 11 | 16.09 | NULL | NULL | 28 | 20 | 62% | 30 | 76.25 | 0.0 | ||||||
| 01 | 22:35 | SE 9 | 16.09 | NULL | NULL | 28 | 20 | 62% | 30 | 76.25 | 0.0 | ||||||
| 01 | 22:15 | SE 9 | 16.09 | NULL | NULL | 29 | 20 | 58% | 31 | 76.25 | 0.0 | ||||||
| 01 | 21:55 | SE 9 | 16.09 | NULL | NULL | 28 | 21 | 66% | 30 | 76.25 | 0.0 | ||||||
| 01 | 21:35 | SE 7 | 16.09 | NULL | NULL | 29 | 21 | 62% | 31 | 76.23 | 0.0 | ||||||
| 01 | 21:15 | E 6 | 16.09 | NULL | NULL | 29 | 21 | 62% | 31 | 76.23 | 0.0 | ||||||
| 01 | 19:50 | SE 7 | 16.09 | A Few Clouds | FEW065 | 32 | 20 | 49% | 34 | 76.17 | 0.0 | ||||||
| 01 | 18:50 | E 7 | 16.09 | A Few Clouds | FEW065 | 34 | 19 | 41% | 36 | 76.17 | 0.0 | ||||||
| 01 | 17:45 | E 11 | 16.09 | Partly Cloudy | FEW065 SCT100 | 36 | 19 | 37% | 38 | 76.2 | 0.0 | ||||||
| 01 | 16:50 | E 9 G 19 | 16.09 | Partly Cloudy | FEW065 SCT110 | 36 | 19 | 37% | 38 | 76.2 | 0.0 | ||||||
| 01 | 15:50 | Vrbl 9 | 16.09 | Partly Cloudy | FEW065 SCT110 | 37 | 20 | 37% | 40 | 76.23 | 0.0 | ||||||
| 01 | 14:50 | SE 6 | 16.09 | Partly Cloudy | SCT055 SCT100 | 38 | 19 | 33% | 40 | 76.25 | 0.0 | ||||||
| 01 | 13:50 | S 6 | 16.09 | Partly Cloudy | SCT055 | 36 | 20 | 39% | 39 | 76.33 | 0.0 | ||||||
| 01 | 12:50 | Vrbl 9 | 16.09 | Partly Cloudy | SCT055 | 36 | 21 | 42% | 40 | 76.38 | 0.0 | ||||||
| 01 | 11:50 | Calm | 16.09 | Partly Cloudy | SCT055 | 35 | 20 | 41% | 38 | 76.43 | 0.0 | ||||||
| 01 | 10:50 | Calm | 16.09 | Fair | CLR | 34 | 21 | 47% | 37 | 76.45 | 0.0 | ||||||
| 01 | 09:50 | W 7 | 16.09 | Fair | CLR | 32 | 22 | 55% | 36 | 76.45 | 0.0 | ||||||
| 01 | 08:50 | S 9 | 16.09 | Fair | CLR | 30 | 23 | 66% | 34 | 76.45 | 0.0 | ||||||
| 01 | 07:50 | Calm | 16.09 | Fair | CLR | 27 | 22 | 74% | 29 | 76.45 | 0.0 | ||||||
| 01 | 06:50 | Calm | 16.09 | Fair | CLR | 24 | 21 | 83% | 24 | 76.4 | 0.0 | ||||||
| 01 | 06:35 | Calm | 16.09 | NULL | NULL | 24 | 21 | 83% | 24 | 76.4 | 0.0 | ||||||
| 01 | 06:15 | Calm | 16.09 | NULL | NULL | 25 | 21 | 79% | 26 | 76.38 | 0.0 | ||||||
| 01 | 05:55 | Calm | 16.09 | NULL | NULL | 25 | 21 | 79% | 26 | 76.38 | 0.0 | ||||||
| 01 | 05:35 | Calm | 16.09 | NULL | NULL | 24 | 21 | 83% | 24 | 76.35 | 0.0 | ||||||
| 01 | 05:15 | Calm | 16.09 | NULL | NULL | 24 | 21 | 83% | 24 | 76.35 | 0.0 | ||||||
| 01 | 04:55 | S 7 | 16.09 | NULL | NULL | 25 | 21 | 79% | 26 | 76.35 | 0.0 | ||||||
| 01 | 04:35 | Calm | 16.09 | Fair | CLR | 24 | 22 | 89% | 24 | 76.33 | 0.0 | ||||||
| 01 | 04:15 | S 7 | 16.09 | NULL | NULL | 24 | 22 | 89% | 24 | 76.33 | 0.0 | ||||||
| 01 | 03:55 | S 6 | 16.09 | NULL | NULL | 24 | 21 | 83% | 24 | 76.33 | 0.0 | ||||||
| 01 | 03:35 | Calm | 16.09 | NULL | NULL | 25 | 22 | 83% | 26 | 76.33 | 0.0 | ||||||
| 01 | 03:15 | Calm | 16.09 | NULL | NULL | 25 | 22 | 83% | 26 | 76.33 | 0.0 | ||||||
| 01 | 02:55 | Calm | 16.09 | NULL | NULL | 25 | 22 | 83% | 26 | 76.33 | 0.0 | ||||||
| 01 | 02:35 | Calm | 16.09 | NULL | NULL | 25 | 22 | 83% | 26 | 76.33 | 0.0 | ||||||
| 01 | 02:15 | Calm | 16.09 | NULL | NULL | 25 | 22 | 83% | 26 | 76.3 | 0.0 | ||||||
| 01 | 01:55 | Calm | 16.09 | NULL | NULL | 25 | 22 | 83% | 26 | 76.3 | 0.0 | ||||||
| 01 | 01:35 | Calm | 16.09 | NULL | NULL | 26 | 21 | 74% | 27 | 76.3 | 0.0 | ||||||
| 01 | 01:15 | Calm | 16.09 | NULL | NULL | 26 | 21 | 74% | 27 | 76.3 | 0.0 | ||||||
| 01 | 00:55 | Calm | 16.09 | NULL | NULL | 26 | 21 | 74% | 27 | 76.33 | 0.0 | ||||||
| 01 | 00:35 | SE 6 | 16.09 | NULL | NULL | 26 | 21 | 74% | 27 | 76.3 | 0.0 | ||||||
| 01 | 00:15 | S 7 | 16.09 | NULL | NULL | 26 | 21 | 74% | 27 | 76.3 | 0.0 | ||||||
| 31 | 23:55 | Calm | 16.09 | NULL | NULL | 27 | 21 | 70% | 29 | 76.3 | 0.0 | ||||||
| 31 | 23:35 | Calm | 16.09 | NULL | NULL | 27 | 21 | 70% | 29 | 76.3 | 0.0 | ||||||
| 31 | 23:15 | SE 9 | 16.09 | NULL | NULL | 28 | 21 | 66% | 30 | 76.3 | 0.0 | ||||||
| 31 | 22:55 | Calm | 16.09 | NULL | NULL | 28 | 21 | 66% | 30 | 76.3 | 0.0 | ||||||
| 31 | 22:35 | Calm | 16.09 | NULL | NULL | 28 | 21 | 66% | 30 | 76.3 | 0.0 | ||||||
| 31 | 22:15 | S 7 | 16.09 | NULL | NULL | 28 | 21 | 66% | 30 | 76.3 | 0.0 | ||||||
| 31 | 21:55 | S 7 | 16.09 | NULL | NULL | 29 | 21 | 62% | 31 | 76.3 | 0.0 | ||||||
| 31 | 21:15 | S 9 | 16.09 | NULL | NULL | 29 | 21 | 62% | 31 | 76.28 | 0.0 | ||||||
| Date | Time (cdt) | Wind (kph) | Vis. (km) | Weather | Sky Cond. | Air | Dwpt | Max. | Min. | Relative Humidity | Wind Chill (°C) | Heat Index (°C) | altimeter (cm) | sea level (mb) | 1 hr | 3 hr | 6 hr |
| 6 hour | |||||||||||||||||
| Temperature (ºC) | Pressure | Precipitation (cm) | |||||||||||||||